sensor_id;sensor_type;location;lat;lon;timestamp;P1;durP1;ratioP1;P2;durP2;ratioP2
77828;SDS011;67019;51.034;3.728;2023-04-03T00:01:04;15.35;;;8.13;;
77828;SDS011;67019;51.034;3.728;2023-04-03T00:03:31;11.93;;;7.92;;
77828;SDS011;67019;51.034;3.728;2023-04-03T00:05:59;11.45;;;7.75;;
77828;SDS011;67019;51.034;3.728;2023-04-03T00:08:27;12.68;;;7.95;;
77828;SDS011;67019;51.034;3.728;2023-04-03T00:10:57;11.03;;;7.95;;
77828;SDS011;67019;51.034;3.728;2023-04-03T00:13:25;14.80;;;8.43;;
77828;SDS011;67019;51.034;3.728;2023-04-03T00:15:52;15.13;;;7.17;;
77828;SDS011;67019;51.034;3.728;2023-04-03T00:18:20;11.45;;;7.35;;
77828;SDS011;67019;51.034;3.728;2023-04-03T00:20:48;11.63;;;7.60;;
77828;SDS011;67019;51.034;3.728;2023-04-03T00:23:16;16.93;;;6.62;;
77828;SDS011;67019;51.034;3.728;2023-04-03T00:25:44;10.85;;;7.00;;
77828;SDS011;67019;51.034;3.728;2023-04-03T00:28:13;14.30;;;7.53;;
77828;SDS011;67019;51.034;3.728;2023-04-03T00:30:42;13.53;;;7.22;;
77828;SDS011;67019;51.034;3.728;2023-04-03T00:33:13;9.73;;;6.35;;
77828;SDS011;67019;51.034;3.728;2023-04-03T00:35:41;11.25;;;6.60;;
77828;SDS011;67019;51.034;3.728;2023-04-03T00:38:09;8.93;;;6.47;;
77828;SDS011;67019;51.034;3.728;2023-04-03T00:40:38;10.70;;;5.97;;
77828;SDS011;67019;51.034;3.728;2023-04-03T00:43:24;8.83;;;6.50;;
77828;SDS011;67019;51.034;3.728;2023-04-03T00:45:53;9.78;;;6.65;;
77828;SDS011;67019;51.034;3.728;2023-04-03T00:48:23;13.78;;;6.72;;
77828;SDS011;67019;51.034;3.728;2023-04-03T00:53:30;9.25;;;5.75;;
77828;SDS011;67019;51.034;3.728;2023-04-03T00:55:54;11.65;;;6.17;;
77828;SDS011;67019;51.034;3.728;2023-04-03T00:58:27;11.80;;;6.93;;
77828;SDS011;67019;51.034;3.728;2023-04-03T01:00:55;16.73;;;7.17;;
77828;SDS011;67019;51.034;3.728;2023-04-03T01:03:25;13.80;;;6.90;;
77828;SDS011;67019;51.034;3.728;2023-04-03T01:05:54;12.47;;;6.70;;
77828;SDS011;67019;51.034;3.728;2023-04-03T01:08:22;12.40;;;7.05;;
77828;SDS011;67019;51.034;3.728;2023-04-03T01:10:50;8.08;;;5.97;;
77828;SDS011;67019;51.034;3.728;2023-04-03T01:13:26;12.53;;;6.83;;
77828;SDS011;67019;51.034;3.728;2023-04-03T01:15:56;13.10;;;5.90;;
77828;SDS011;67019;51.034;3.728;2023-04-03T01:18:25;8.35;;;6.15;;
77828;SDS011;67019;51.034;3.728;2023-04-03T01:21:06;11.73;;;6.92;;
77828;SDS011;67019;51.034;3.728;2023-04-03T01:26:28;9.35;;;6.37;;
77828;SDS011;67019;51.034;3.728;2023-04-03T01:28:58;12.60;;;6.15;;
77828;SDS011;67019;51.034;3.728;2023-04-03T01:34:11;7.58;;;6.08;;
77828;SDS011;67019;51.034;3.728;2023-04-03T01:36:38;10.15;;;6.10;;
77828;SDS011;67019;51.034;3.728;2023-04-03T01:39:06;11.50;;;5.83;;
77828;SDS011;67019;51.034;3.728;2023-04-03T01:41:34;13.32;;;6.25;;
77828;SDS011;67019;51.034;3.728;2023-04-03T01:44:02;21.73;;;7.95;;
77828;SDS011;67019;51.034;3.728;2023-04-03T01:46:30;9.78;;;5.45;;
77828;SDS011;67019;51.034;3.728;2023-04-03T01:48:58;9.88;;;6.28;;
77828;SDS011;67019;51.034;3.728;2023-04-03T01:51:26;12.18;;;6.22;;
77828;SDS011;67019;51.034;3.728;2023-04-03T01:53:53;9.60;;;6.35;;
77828;SDS011;67019;51.034;3.728;2023-04-03T01:56:21;13.00;;;6.78;;
77828;SDS011;67019;51.034;3.728;2023-04-03T01:58:50;13.13;;;7.10;;
77828;SDS011;67019;51.034;3.728;2023-04-03T02:01:18;9.85;;;6.72;;
77828;SDS011;67019;51.034;3.728;2023-04-03T02:03:46;8.25;;;6.42;;
77828;SDS011;67019;51.034;3.728;2023-04-03T02:06:16;12.80;;;6.17;;
77828;SDS011;67019;51.034;3.728;2023-04-03T02:08:43;12.37;;;6.80;;
77828;SDS011;67019;51.034;3.728;2023-04-03T02:11:13;10.20;;;6.85;;
77828;SDS011;67019;51.034;3.728;2023-04-03T02:13:40;10.60;;;7.25;;
77828;SDS011;67019;51.034;3.728;2023-04-03T02:16:08;9.20;;;6.40;;
77828;SDS011;67019;51.034;3.728;2023-04-03T02:18:38;8.08;;;6.33;;
77828;SDS011;67019;51.034;3.728;2023-04-03T02:21:06;11.85;;;7.42;;
77828;SDS011;67019;51.034;3.728;2023-04-03T02:23:34;10.48;;;6.80;;
77828;SDS011;67019;51.034;3.728;2023-04-03T02:26:03;11.03;;;7.67;;
77828;SDS011;67019;51.034;3.728;2023-04-03T02:28:32;14.13;;;7.15;;
77828;SDS011;67019;51.034;3.728;2023-04-03T02:31:00;10.70;;;6.70;;
77828;SDS011;67019;51.034;3.728;2023-04-03T02:33:27;11.65;;;7.28;;
77828;SDS011;67019;51.034;3.728;2023-04-03T02:35:55;11.88;;;6.72;;
77828;SDS011;67019;51.034;3.728;2023-04-03T02:38:24;9.35;;;6.90;;
77828;SDS011;67019;51.034;3.728;2023-04-03T02:40:52;10.48;;;6.80;;
77828;SDS011;67019;51.034;3.728;2023-04-03T02:43:19;12.43;;;7.05;;
77828;SDS011;67019;51.034;3.728;2023-04-03T02:45:47;11.88;;;7.58;;
77828;SDS011;67019;51.034;3.728;2023-04-03T02:48:14;9.93;;;5.95;;
77828;SDS011;67019;51.034;3.728;2023-04-03T02:50:42;13.35;;;8.50;;
77828;SDS011;67019;51.034;3.728;2023-04-03T02:53:10;13.20;;;7.78;;
77828;SDS011;67019;51.034;3.728;2023-04-03T02:55:37;12.60;;;7.60;;
77828;SDS011;67019;51.034;3.728;2023-04-03T02:58:05;10.65;;;7.15;;
77828;SDS011;67019;51.034;3.728;2023-04-03T03:00:34;14.03;;;8.15;;
77828;SDS011;67019;51.034;3.728;2023-04-03T03:03:02;13.95;;;7.15;;
77828;SDS011;67019;51.034;3.728;2023-04-03T03:05:30;11.12;;;6.87;;
77828;SDS011;67019;51.034;3.728;2023-04-03T03:07:58;11.48;;;7.12;;
77828;SDS011;67019;51.034;3.728;2023-04-03T03:10:25;17.87;;;7.30;;
77828;SDS011;67019;51.034;3.728;2023-04-03T03:12:53;9.58;;;6.08;;
77828;SDS011;67019;51.034;3.728;2023-04-03T03:15:21;9.65;;;6.42;;
77828;SDS011;67019;51.034;3.728;2023-04-03T03:17:48;15.18;;;7.30;;
77828;SDS011;67019;51.034;3.728;2023-04-03T03:20:16;10.32;;;6.67;;
77828;SDS011;67019;51.034;3.728;2023-04-03T03:22:43;8.80;;;6.55;;
77828;SDS011;67019;51.034;3.728;2023-04-03T03:25:11;9.80;;;6.92;;
77828;SDS011;67019;51.034;3.728;2023-04-03T03:27:39;11.50;;;6.30;;
77828;SDS011;67019;51.034;3.728;2023-04-03T03:30:07;12.55;;;8.15;;
77828;SDS011;67019;51.034;3.728;2023-04-03T03:32:36;11.95;;;7.12;;
77828;SDS011;67019;51.034;3.728;2023-04-03T03:35:03;10.58;;;7.15;;
77828;SDS011;67019;51.034;3.728;2023-04-03T03:37:31;12.43;;;7.47;;
77828;SDS011;67019;51.034;3.728;2023-04-03T03:39:59;11.05;;;7.62;;
77828;SDS011;67019;51.034;3.728;2023-04-03T03:42:26;16.77;;;7.37;;
77828;SDS011;67019;51.034;3.728;2023-04-03T03:44:54;10.32;;;6.55;;
77828;SDS011;67019;51.034;3.728;2023-04-03T03:47:22;13.13;;;6.75;;
77828;SDS011;67019;51.034;3.728;2023-04-03T03:49:49;13.55;;;7.05;;
77828;SDS011;67019;51.034;3.728;2023-04-03T03:52:17;12.37;;;7.62;;
77828;SDS011;67019;51.034;3.728;2023-04-03T03:54:45;13.22;;;6.97;;
77828;SDS011;67019;51.034;3.728;2023-04-03T03:57:12;7.70;;;6.28;;
77828;SDS011;67019;51.034;3.728;2023-04-03T03:59:43;10.63;;;7.15;;
77828;SDS011;67019;51.034;3.728;2023-04-03T04:02:10;13.50;;;7.75;;
77828;SDS011;67019;51.034;3.728;2023-04-03T04:04:38;10.48;;;6.87;;
77828;SDS011;67019;51.034;3.728;2023-04-03T04:07:06;11.15;;;6.83;;
77828;SDS011;67019;51.034;3.728;2023-04-03T04:09:33;14.85;;;7.67;;
77828;SDS011;67019;51.034;3.728;2023-04-03T04:12:01;13.22;;;6.92;;
77828;SDS011;67019;51.034;3.728;2023-04-03T04:14:29;14.43;;;6.62;;
77828;SDS011;67019;51.034;3.728;2023-04-03T04:16:56;10.48;;;6.28;;
77828;SDS011;67019;51.034;3.728;2023-04-03T04:19:24;13.75;;;8.43;;
77828;SDS011;67019;51.034;3.728;2023-04-03T04:21:51;11.55;;;6.92;;
77828;SDS011;67019;51.034;3.728;2023-04-03T04:24:19;7.92;;;6.22;;
77828;SDS011;67019;51.034;3.728;2023-04-03T04:26:48;12.37;;;7.50;;
77828;SDS011;67019;51.034;3.728;2023-04-03T04:29:16;10.13;;;6.67;;
77828;SDS011;67019;51.034;3.728;2023-04-03T04:31:45;21.00;;;7.15;;
77828;SDS011;67019;51.034;3.728;2023-04-03T04:34:12;9.40;;;6.67;;
77828;SDS011;67019;51.034;3.728;2023-04-03T04:36:40;10.88;;;7.70;;
77828;SDS011;67019;51.034;3.728;2023-04-03T04:39:08;12.33;;;7.47;;
77828;SDS011;67019;51.034;3.728;2023-04-03T04:41:36;7.92;;;6.35;;
77828;SDS011;67019;51.034;3.728;2023-04-03T04:44:03;18.02;;;7.75;;
77828;SDS011;67019;51.034;3.728;2023-04-03T04:46:31;21.33;;;8.08;;
77828;SDS011;67019;51.034;3.728;2023-04-03T04:48:59;13.90;;;8.13;;
77828;SDS011;67019;51.034;3.728;2023-04-03T04:51:26;18.37;;;7.87;;
77828;SDS011;67019;51.034;3.728;2023-04-03T04:53:54;14.58;;;8.10;;
77828;SDS011;67019;51.034;3.728;2023-04-03T04:56:21;12.30;;;8.23;;
77828;SDS011;67019;51.034;3.728;2023-04-03T04:58:49;9.65;;;7.03;;
77828;SDS011;67019;51.034;3.728;2023-04-03T05:01:17;15.78;;;8.60;;
77828;SDS011;67019;51.034;3.728;2023-04-03T05:03:44;16.07;;;8.30;;
77828;SDS011;67019;51.034;3.728;2023-04-03T05:06:13;10.90;;;8.33;;
77828;SDS011;67019;51.034;3.728;2023-04-03T05:08:43;13.53;;;7.97;;
77828;SDS011;67019;51.034;3.728;2023-04-03T05:11:10;11.97;;;7.72;;
77828;SDS011;67019;51.034;3.728;2023-04-03T05:13:38;14.47;;;8.38;;
77828;SDS011;67019;51.034;3.728;2023-04-03T05:16:06;11.57;;;7.95;;
77828;SDS011;67019;51.034;3.728;2023-04-03T05:18:33;12.18;;;8.60;;
77828;SDS011;67019;51.034;3.728;2023-04-03T05:21:01;11.65;;;8.10;;
77828;SDS011;67019;51.034;3.728;2023-04-03T05:23:29;13.95;;;8.45;;
77828;SDS011;67019;51.034;3.728;2023-04-03T05:25:57;12.33;;;8.15;;
77828;SDS011;67019;51.034;3.728;2023-04-03T05:28:24;16.95;;;8.78;;
77828;SDS011;67019;51.034;3.728;2023-04-03T05:30:54;20.95;;;10.98;;
77828;SDS011;67019;51.034;3.728;2023-04-03T05:33:21;12.25;;;8.33;;
77828;SDS011;67019;51.034;3.728;2023-04-03T05:35:52;12.55;;;9.70;;
77828;SDS011;67019;51.034;3.728;2023-04-03T05:38:20;13.95;;;9.45;;
77828;SDS011;67019;51.034;3.728;2023-04-03T05:40:47;33.92;;;10.03;;
77828;SDS011;67019;51.034;3.728;2023-04-03T05:43:15;14.78;;;8.30;;
77828;SDS011;67019;51.034;3.728;2023-04-03T05:45:43;15.78;;;9.05;;
77828;SDS011;67019;51.034;3.728;2023-04-03T05:48:11;13.13;;;8.58;;
77828;SDS011;67019;51.034;3.728;2023-04-03T05:50:38;16.77;;;10.03;;
77828;SDS011;67019;51.034;3.728;2023-04-03T05:53:12;11.70;;;8.25;;
77828;SDS011;67019;51.034;3.728;2023-04-03T05:55:41;18.65;;;9.45;;
77828;SDS011;67019;51.034;3.728;2023-04-03T05:58:09;13.68;;;9.35;;
77828;SDS011;67019;51.034;3.728;2023-04-03T06:00:36;16.82;;;10.00;;
77828;SDS011;67019;51.034;3.728;2023-04-03T06:03:04;17.80;;;9.60;;
77828;SDS011;67019;51.034;3.728;2023-04-03T06:05:32;13.83;;;9.65;;
77828;SDS011;67019;51.034;3.728;2023-04-03T06:08:00;20.43;;;9.78;;
77828;SDS011;67019;51.034;3.728;2023-04-03T06:10:29;23.70;;;9.68;;
77828;SDS011;67019;51.034;3.728;2023-04-03T06:12:56;12.95;;;8.73;;
77828;SDS011;67019;51.034;3.728;2023-04-03T06:15:24;16.12;;;9.53;;
77828;SDS011;67019;51.034;3.728;2023-04-03T06:17:52;18.37;;;10.00;;
77828;SDS011;67019;51.034;3.728;2023-04-03T06:20:19;13.35;;;9.58;;
77828;SDS011;67019;51.034;3.728;2023-04-03T06:22:48;26.68;;;9.20;;
77828;SDS011;67019;51.034;3.728;2023-04-03T06:25:16;20.92;;;10.55;;
77828;SDS011;67019;51.034;3.728;2023-04-03T06:27:46;19.52;;;9.10;;
77828;SDS011;67019;51.034;3.728;2023-04-03T06:30:14;19.52;;;9.93;;
77828;SDS011;67019;51.034;3.728;2023-04-03T06:32:42;19.40;;;9.93;;
77828;SDS011;67019;51.034;3.728;2023-04-03T06:35:10;14.35;;;8.68;;
77828;SDS011;67019;51.034;3.728;2023-04-03T06:37:37;12.05;;;8.93;;
77828;SDS011;67019;51.034;3.728;2023-04-03T06:40:07;13.32;;;8.78;;
77828;SDS011;67019;51.034;3.728;2023-04-03T06:42:38;18.12;;;10.80;;
77828;SDS011;67019;51.034;3.728;2023-04-03T06:45:07;12.30;;;9.10;;
77828;SDS011;67019;51.034;3.728;2023-04-03T06:47:36;12.63;;;8.80;;
77828;SDS011;67019;51.034;3.728;2023-04-03T06:50:04;12.50;;;9.98;;
77828;SDS011;67019;51.034;3.728;2023-04-03T06:52:33;23.50;;;9.18;;
77828;SDS011;67019;51.034;3.728;2023-04-03T06:55:00;15.60;;;8.53;;
77828;SDS011;67019;51.034;3.728;2023-04-03T06:57:28;19.45;;;8.68;;
77828;SDS011;67019;51.034;3.728;2023-04-03T06:59:56;14.98;;;8.80;;
77828;SDS011;67019;51.034;3.728;2023-04-03T07:02:24;12.03;;;9.35;;
77828;SDS011;67019;51.034;3.728;2023-04-03T07:04:52;40.80;;;9.23;;
77828;SDS011;67019;51.034;3.728;2023-04-03T07:07:19;13.83;;;8.43;;
77828;SDS011;67019;51.034;3.728;2023-04-03T07:09:47;14.63;;;8.70;;
77828;SDS011;67019;51.034;3.728;2023-04-03T07:12:15;14.95;;;8.83;;
77828;SDS011;67019;51.034;3.728;2023-04-03T07:14:45;15.95;;;9.55;;
77828;SDS011;67019;51.034;3.728;2023-04-03T07:17:12;22.02;;;8.75;;
77828;SDS011;67019;51.034;3.728;2023-04-03T07:19:39;13.28;;;8.30;;
77828;SDS011;67019;51.034;3.728;2023-04-03T07:22:07;15.75;;;9.05;;
77828;SDS011;67019;51.034;3.728;2023-04-03T07:24:36;12.73;;;7.95;;
77828;SDS011;67019;51.034;3.728;2023-04-03T07:27:04;13.22;;;7.95;;
77828;SDS011;67019;51.034;3.728;2023-04-03T07:29:34;18.75;;;9.10;;
77828;SDS011;67019;51.034;3.728;2023-04-03T07:32:02;15.88;;;8.58;;
77828;SDS011;67019;51.034;3.728;2023-04-03T07:34:31;15.45;;;7.47;;
77828;SDS011;67019;51.034;3.728;2023-04-03T07:36:59;14.00;;;7.67;;
77828;SDS011;67019;51.034;3.728;2023-04-03T07:39:28;12.55;;;7.83;;
77828;SDS011;67019;51.034;3.728;2023-04-03T07:41:56;12.30;;;7.70;;
77828;SDS011;67019;51.034;3.728;2023-04-03T07:44:24;15.65;;;8.18;;
77828;SDS011;67019;51.034;3.728;2023-04-03T07:46:52;11.22;;;9.50;;
77828;SDS011;67019;51.034;3.728;2023-04-03T07:49:21;9.93;;;6.75;;
77828;SDS011;67019;51.034;3.728;2023-04-03T07:51:51;11.10;;;8.18;;
77828;SDS011;67019;51.034;3.728;2023-04-03T07:54:19;20.32;;;7.72;;
77828;SDS011;67019;51.034;3.728;2023-04-03T07:56:46;14.70;;;6.50;;
77828;SDS011;67019;51.034;3.728;2023-04-03T07:59:14;13.28;;;8.05;;
77828;SDS011;67019;51.034;3.728;2023-04-03T08:01:42;12.28;;;7.37;;
77828;SDS011;67019;51.034;3.728;2023-04-03T08:04:09;12.53;;;8.60;;
77828;SDS011;67019;51.034;3.728;2023-04-03T08:06:37;10.88;;;7.45;;
77828;SDS011;67019;51.034;3.728;2023-04-03T08:09:05;14.43;;;8.70;;
77828;SDS011;67019;51.034;3.728;2023-04-03T08:11:32;13.70;;;8.13;;
77828;SDS011;67019;51.034;3.728;2023-04-03T08:14:02;14.15;;;7.92;;
77828;SDS011;67019;51.034;3.728;2023-04-03T08:16:29;18.37;;;9.08;;
77828;SDS011;67019;51.034;3.728;2023-04-03T08:18:57;13.08;;;8.13;;
77828;SDS011;67019;51.034;3.728;2023-04-03T08:21:25;12.50;;;8.28;;
77828;SDS011;67019;51.034;3.728;2023-04-03T08:23:53;17.60;;;11.03;;
77828;SDS011;67019;51.034;3.728;2023-04-03T08:26:20;16.17;;;9.50;;
77828;SDS011;67019;51.034;3.728;2023-04-03T08:28:48;15.30;;;9.63;;
77828;SDS011;67019;51.034;3.728;2023-04-03T08:31:17;14.90;;;8.90;;
77828;SDS011;67019;51.034;3.728;2023-04-03T08:33:46;12.37;;;8.73;;
77828;SDS011;67019;51.034;3.728;2023-04-03T08:36:19;13.55;;;7.95;;
77828;SDS011;67019;51.034;3.728;2023-04-03T08:38:49;15.83;;;8.95;;
77828;SDS011;67019;51.034;3.728;2023-04-03T08:41:25;11.73;;;7.22;;
77828;SDS011;67019;51.034;3.728;2023-04-03T08:44:01;12.80;;;7.55;;
77828;SDS011;67019;51.034;3.728;2023-04-03T08:49:30;9.60;;;6.25;;
77828;SDS011;67019;51.034;3.728;2023-04-03T08:51:59;13.28;;;4.78;;
77828;SDS011;67019;51.034;3.728;2023-04-03T08:54:33;8.60;;;3.12;;
77828;SDS011;67019;51.034;3.728;2023-04-03T08:57:09;6.92;;;4.42;;
77828;SDS011;67019;51.034;3.728;2023-04-03T08:59:39;7.17;;;3.98;;
77828;SDS011;67019;51.034;3.728;2023-04-03T09:02:17;4.80;;;3.98;;
77828;SDS011;67019;51.034;3.728;2023-04-03T09:04:53;8.63;;;3.72;;
77828;SDS011;67019;51.034;3.728;2023-04-03T09:07:30;8.88;;;4.28;;
77828;SDS011;67019;51.034;3.728;2023-04-03T09:09:54;13.60;;;4.15;;
77828;SDS011;67019;51.034;3.728;2023-04-03T09:12:25;6.65;;;3.25;;
77828;SDS011;67019;51.034;3.728;2023-04-03T09:15:04;9.13;;;4.50;;
77828;SDS011;67019;51.034;3.728;2023-04-03T09:17:37;8.25;;;3.45;;
77828;SDS011;67019;51.034;3.728;2023-04-03T09:20:36;10.85;;;4.75;;
77828;SDS011;67019;51.034;3.728;2023-04-03T09:23:01;5.05;;;3.05;;
77828;SDS011;67019;51.034;3.728;2023-04-03T09:25:41;6.83;;;4.17;;
77828;SDS011;67019;51.034;3.728;2023-04-03T09:28:32;5.83;;;3.70;;
77828;SDS011;67019;51.034;3.728;2023-04-03T09:31:47;19.25;;;4.28;;
77828;SDS011;67019;51.034;3.728;2023-04-03T09:33:37;5.80;;;4.80;;
77828;SDS011;67019;51.034;3.728;2023-04-03T09:36:06;13.98;;;3.70;;
77828;SDS011;67019;51.034;3.728;2023-04-03T09:38:34;6.15;;;3.08;;
77828;SDS011;67019;51.034;3.728;2023-04-03T09:41:04;9.45;;;3.33;;
77828;SDS011;67019;51.034;3.728;2023-04-03T09:43:33;6.72;;;2.90;;
77828;SDS011;67019;51.034;3.728;2023-04-03T09:46:18;11.20;;;3.85;;
77828;SDS011;67019;51.034;3.728;2023-04-03T09:48:51;31.90;;;6.42;;
77828;SDS011;67019;51.034;3.728;2023-04-03T09:51:22;5.45;;;3.02;;
77828;SDS011;67019;51.034;3.728;2023-04-03T09:53:53;4.40;;;1.65;;
77828;SDS011;67019;51.034;3.728;2023-04-03T09:56:24;6.22;;;3.20;;
77828;SDS011;67019;51.034;3.728;2023-04-03T10:01:43;8.75;;;3.05;;
77828;SDS011;67019;51.034;3.728;2023-04-03T10:04:25;17.55;;;4.55;;
77828;SDS011;67019;51.034;3.728;2023-04-03T10:06:55;9.38;;;3.37;;
77828;SDS011;67019;51.034;3.728;2023-04-03T10:12:00;10.68;;;3.10;;
77828;SDS011;67019;51.034;3.728;2023-04-03T10:14:41;4.05;;;2.27;;
77828;SDS011;67019;51.034;3.728;2023-04-03T10:17:23;6.33;;;3.40;;
77828;SDS011;67019;51.034;3.728;2023-04-03T10:19:52;7.00;;;2.80;;
77828;SDS011;67019;51.034;3.728;2023-04-03T10:22:37;6.08;;;2.65;;
77828;SDS011;67019;51.034;3.728;2023-04-03T10:25:05;3.90;;;2.37;;
77828;SDS011;67019;51.034;3.728;2023-04-03T10:30:38;3.05;;;2.15;;
77828;SDS011;67019;51.034;3.728;2023-04-03T10:33:30;5.53;;;2.90;;
77828;SDS011;67019;51.034;3.728;2023-04-03T10:36:02;5.03;;;2.08;;
77828;SDS011;67019;51.034;3.728;2023-04-03T10:38:45;10.90;;;2.50;;
77828;SDS011;67019;51.034;3.728;2023-04-03T10:46:55;7.67;;;2.22;;
77828;SDS011;67019;51.034;3.728;2023-04-03T10:54:30;5.20;;;2.75;;
77828;SDS011;67019;51.034;3.728;2023-04-03T10:57:06;8.30;;;2.62;;
77828;SDS011;67019;51.034;3.728;2023-04-03T10:59:45;4.55;;;1.85;;
77828;SDS011;67019;51.034;3.728;2023-04-03T11:05:04;8.20;;;2.35;;
77828;SDS011;67019;51.034;3.728;2023-04-03T11:07:40;4.83;;;1.85;;
77828;SDS011;67019;51.034;3.728;2023-04-03T11:12:44;5.17;;;1.72;;
77828;SDS011;67019;51.034;3.728;2023-04-03T11:15:17;6.95;;;2.25;;
77828;SDS011;67019;51.034;3.728;2023-04-03T11:17:51;6.70;;;2.77;;
77828;SDS011;67019;51.034;3.728;2023-04-03T11:20:28;7.55;;;2.62;;
77828;SDS011;67019;51.034;3.728;2023-04-03T11:23:02;4.42;;;1.85;;
77828;SDS011;67019;51.034;3.728;2023-04-03T11:25:35;4.90;;;1.98;;
77828;SDS011;67019;51.034;3.728;2023-04-03T11:28:06;4.83;;;2.02;;
77828;SDS011;67019;51.034;3.728;2023-04-03T11:30:44;5.22;;;1.87;;
77828;SDS011;67019;51.034;3.728;2023-04-03T11:36:00;11.70;;;2.08;;
77828;SDS011;67019;51.034;3.728;2023-04-03T11:38:28;29.52;;;3.58;;
77828;SDS011;67019;51.034;3.728;2023-04-03T11:41:00;8.50;;;2.00;;
77828;SDS011;67019;51.034;3.728;2023-04-03T11:43:30;2.27;;;1.27;;
77828;SDS011;67019;51.034;3.728;2023-04-03T11:46:05;4.67;;;1.75;;
77828;SDS011;67019;51.034;3.728;2023-04-03T11:53:43;7.22;;;1.05;;
77828;SDS011;67019;51.034;3.728;2023-04-03T12:01:49;5.37;;;1.60;;
77828;SDS011;67019;51.034;3.728;2023-04-03T12:04:24;5.37;;;1.25;;
77828;SDS011;67019;51.034;3.728;2023-04-03T12:09:24;2.50;;;1.52;;
77828;SDS011;67019;51.034;3.728;2023-04-03T12:11:57;6.78;;;1.40;;
77828;SDS011;67019;51.034;3.728;2023-04-03T12:14:27;4.72;;;1.30;;
77828;SDS011;67019;51.034;3.728;2023-04-03T12:16:57;42.62;;;3.00;;
77828;SDS011;67019;51.034;3.728;2023-04-03T12:19:39;5.20;;;1.80;;
77828;SDS011;67019;51.034;3.728;2023-04-03T12:22:08;5.42;;;1.40;;
77828;SDS011;67019;51.034;3.728;2023-04-03T12:24:43;4.47;;;1.60;;
77828;SDS011;67019;51.034;3.728;2023-04-03T12:27:27;5.95;;;1.35;;
77828;SDS011;67019;51.034;3.728;2023-04-03T12:30:04;17.95;;;2.45;;
77828;SDS011;67019;51.034;3.728;2023-04-03T12:35:16;4.53;;;1.80;;
77828;SDS011;67019;51.034;3.728;2023-04-03T12:43:31;13.30;;;2.65;;
77828;SDS011;67019;51.034;3.728;2023-04-03T12:48:48;12.58;;;2.72;;
77828;SDS011;67019;51.034;3.728;2023-04-03T12:51:38;5.08;;;2.27;;
77828;SDS011;67019;51.034;3.728;2023-04-03T12:54:19;5.08;;;1.90;;
77828;SDS011;67019;51.034;3.728;2023-04-03T12:56:47;8.30;;;2.52;;
77828;SDS011;67019;51.034;3.728;2023-04-03T13:01:53;3.83;;;1.70;;
77828;SDS011;67019;51.034;3.728;2023-04-03T13:04:26;2.27;;;1.70;;
77828;SDS011;67019;51.034;3.728;2023-04-03T13:06:55;6.47;;;1.80;;
77828;SDS011;67019;51.034;3.728;2023-04-03T13:09:24;5.70;;;2.10;;
77828;SDS011;67019;51.034;3.728;2023-04-03T13:11:56;3.85;;;1.50;;
77828;SDS011;67019;51.034;3.728;2023-04-03T13:14:30;7.33;;;1.82;;
77828;SDS011;67019;51.034;3.728;2023-04-03T13:17:00;2.37;;;1.00;;
77828;SDS011;67019;51.034;3.728;2023-04-03T13:19:32;4.25;;;1.60;;
77828;SDS011;67019;51.034;3.728;2023-04-03T13:24:36;6.70;;;1.40;;
77828;SDS011;67019;51.034;3.728;2023-04-03T13:27:04;5.45;;;1.50;;
77828;SDS011;67019;51.034;3.728;2023-04-03T13:29:34;4.20;;;1.45;;
77828;SDS011;67019;51.034;3.728;2023-04-03T13:34:38;6.78;;;1.77;;
77828;SDS011;67019;51.034;3.728;2023-04-03T13:37:11;5.37;;;1.62;;
77828;SDS011;67019;51.034;3.728;2023-04-03T13:39:57;3.87;;;1.77;;
77828;SDS011;67019;51.034;3.728;2023-04-03T13:42:37;3.58;;;1.32;;
77828;SDS011;67019;51.034;3.728;2023-04-03T13:47:50;2.35;;;1.42;;
77828;SDS011;67019;51.034;3.728;2023-04-03T13:50:21;8.25;;;1.67;;
77828;SDS011;67019;51.034;3.728;2023-04-03T13:53:01;12.30;;;2.42;;
77828;SDS011;67019;51.034;3.728;2023-04-03T13:55:32;5.00;;;1.67;;
77828;SDS011;67019;51.034;3.728;2023-04-03T13:58:26;2.15;;;1.27;;
77828;SDS011;67019;51.034;3.728;2023-04-03T14:00:54;3.25;;;1.40;;
77828;SDS011;67019;51.034;3.728;2023-04-03T14:06:04;2.80;;;1.12;;
77828;SDS011;67019;51.034;3.728;2023-04-03T14:08:32;6.08;;;1.92;;
77828;SDS011;67019;51.034;3.728;2023-04-03T14:11:00;3.55;;;1.20;;
77828;SDS011;67019;51.034;3.728;2023-04-03T14:13:31;5.05;;;1.22;;
77828;SDS011;67019;51.034;3.728;2023-04-03T14:15:59;4.20;;;1.40;;
77828;SDS011;67019;51.034;3.728;2023-04-03T14:18:26;6.90;;;1.40;;
77828;SDS011;67019;51.034;3.728;2023-04-03T14:20:54;2.85;;;1.22;;
77828;SDS011;67019;51.034;3.728;2023-04-03T14:23:22;5.40;;;1.80;;
77828;SDS011;67019;51.034;3.728;2023-04-03T14:25:49;1.32;;;1.02;;
77828;SDS011;67019;51.034;3.728;2023-04-03T14:28:18;8.35;;;1.50;;
77828;SDS011;67019;51.034;3.728;2023-04-03T14:30:48;1.98;;;1.40;;
77828;SDS011;67019;51.034;3.728;2023-04-03T14:33:19;1.70;;;1.40;;
77828;SDS011;67019;51.034;3.728;2023-04-03T14:35:47;2.92;;;1.17;;
77828;SDS011;67019;51.034;3.728;2023-04-03T14:40:53;2.67;;;1.10;;
77828;SDS011;67019;51.034;3.728;2023-04-03T14:43:21;4.08;;;1.52;;
77828;SDS011;67019;51.034;3.728;2023-04-03T14:45:49;4.12;;;1.00;;
77828;SDS011;67019;51.034;3.728;2023-04-03T14:48:22;7.03;;;1.52;;
77828;SDS011;67019;51.034;3.728;2023-04-03T14:50:51;9.30;;;1.60;;
77828;SDS011;67019;51.034;3.728;2023-04-03T14:53:19;5.53;;;1.75;;
77828;SDS011;67019;51.034;3.728;2023-04-03T14:55:52;3.87;;;1.30;;
77828;SDS011;67019;51.034;3.728;2023-04-03T14:58:20;4.50;;;1.30;;
77828;SDS011;67019;51.034;3.728;2023-04-03T15:00:48;3.40;;;1.60;;
77828;SDS011;67019;51.034;3.728;2023-04-03T15:03:20;2.67;;;1.27;;
77828;SDS011;67019;51.034;3.728;2023-04-03T15:05:49;1.87;;;1.00;;
77828;SDS011;67019;51.034;3.728;2023-04-03T15:08:21;4.35;;;1.52;;
77828;SDS011;67019;51.034;3.728;2023-04-03T15:10:50;1.82;;;1.27;;
77828;SDS011;67019;51.034;3.728;2023-04-03T15:13:19;5.08;;;1.60;;
77828;SDS011;67019;51.034;3.728;2023-04-03T15:15:47;5.25;;;1.67;;
77828;SDS011;67019;51.034;3.728;2023-04-03T15:18:18;3.62;;;1.25;;
77828;SDS011;67019;51.034;3.728;2023-04-03T15:20:48;2.55;;;1.25;;
77828;SDS011;67019;51.034;3.728;2023-04-03T15:23:16;3.83;;;1.47;;
77828;SDS011;67019;51.034;3.728;2023-04-03T15:25:46;6.62;;;1.77;;
77828;SDS011;67019;51.034;3.728;2023-04-03T15:28:19;8.95;;;1.60;;
77828;SDS011;67019;51.034;3.728;2023-04-03T15:30:52;1.92;;;1.25;;
77828;SDS011;67019;51.034;3.728;2023-04-03T15:33:19;4.53;;;1.82;;
77828;SDS011;67019;51.034;3.728;2023-04-03T15:35:48;3.83;;;1.37;;
77828;SDS011;67019;51.034;3.728;2023-04-03T15:38:16;4.75;;;1.40;;
77828;SDS011;67019;51.034;3.728;2023-04-03T15:40:44;7.28;;;2.15;;
77828;SDS011;67019;51.034;3.728;2023-04-03T15:43:12;3.42;;;0.90;;
77828;SDS011;67019;51.034;3.728;2023-04-03T15:45:41;4.47;;;1.72;;
77828;SDS011;67019;51.034;3.728;2023-04-03T15:48:09;3.15;;;1.70;;
77828;SDS011;67019;51.034;3.728;2023-04-03T15:50:37;10.58;;;1.55;;
77828;SDS011;67019;51.034;3.728;2023-04-03T15:53:08;2.90;;;1.10;;
77828;SDS011;67019;51.034;3.728;2023-04-03T15:55:36;3.65;;;1.30;;
77828;SDS011;67019;51.034;3.728;2023-04-03T15:58:05;2.50;;;1.55;;
77828;SDS011;67019;51.034;3.728;2023-04-03T16:00:32;2.90;;;1.55;;
77828;SDS011;67019;51.034;3.728;2023-04-03T16:03:04;2.85;;;1.67;;
77828;SDS011;67019;51.034;3.728;2023-04-03T16:05:34;2.98;;;1.37;;
77828;SDS011;67019;51.034;3.728;2023-04-03T16:10:30;4.20;;;1.27;;
77828;SDS011;67019;51.034;3.728;2023-04-03T16:12:58;3.50;;;1.70;;
77828;SDS011;67019;51.034;3.728;2023-04-03T16:15:26;14.87;;;2.12;;
77828;SDS011;67019;51.034;3.728;2023-04-03T16:17:53;4.17;;;1.37;;